createdAt,value
2022-10-10T00:04:08.881Z,99778.41
2022-10-10T00:09:11.734Z,99786.31
2022-10-10T00:14:14.360Z,99788.13
2022-10-10T00:19:16.964Z,99774.31
2022-10-10T00:24:19.731Z,99801.91
2022-10-10T00:29:22.349Z,99794.19
2022-10-10T00:34:24.994Z,99797.72
2022-10-10T00:39:27.585Z,99819.22
2022-10-10T00:44:30.183Z,99825.25
2022-10-10T00:49:35.986Z,99791.78
2022-10-10T00:54:39.838Z,99823.66
2022-10-10T00:59:45.639Z,99828.88
2022-10-10T01:04:48.349Z,99847.78
2022-10-10T01:09:53.664Z,99831.38
2022-10-10T01:15:15.550Z,99832.28
2022-10-10T01:20:52.360Z,99848.69
2022-10-10T01:26:10.081Z,99846.94
2022-10-10T01:31:15.424Z,99863.31
2022-10-10T01:36:42.628Z,99863.28
2022-10-10T01:41:56.335Z,99888.34
2022-10-10T01:46:59.450Z,99897.88
2022-10-10T01:52:36.359Z,99887.53
2022-10-10T01:57:48.072Z,99909.03
2022-10-10T02:03:10.949Z,99919.41
2022-10-10T02:08:27.621Z,99919.41
2022-10-10T02:13:56.985Z,99914.22
2022-10-10T02:19:00.354Z,99916.84
2022-10-10T02:24:08.213Z,99940.13
2022-10-10T02:29:24.432Z,99953.03
2022-10-10T02:34:35.607Z,99947.88
2022-10-10T02:39:44.386Z,99943.53
2022-10-10T02:44:47.879Z,99960.78
2022-10-10T02:49:52.012Z,99956.44
2022-10-10T02:54:54.593Z,99958.19
2022-10-10T02:59:57.309Z,99964.22
2022-10-10T03:05:00.439Z,99937.53
2022-10-10T03:10:06.189Z,99960.78
2022-10-10T03:15:11.686Z,99962.50
2022-10-10T03:20:14.834Z,99972.84
2022-10-10T03:25:17.634Z,99981.44
2022-10-10T03:30:20.201Z,99964.22
2022-10-10T03:35:22.784Z,99990.94
2022-10-10T03:40:26.961Z,100006.44
2022-10-10T03:45:29.505Z,100008.13
2022-10-10T03:50:32.309Z,100002.09
2022-10-10T03:55:34.997Z,100033.16
2022-10-10T04:00:37.685Z,100035.75
2022-10-10T04:05:40.385Z,100043.44
2022-10-10T04:10:42.964Z,100044.28
2022-10-10T04:15:45.684Z,100054.63
2022-10-10T04:20:48.230Z,100052.94
2022-10-10T04:25:53.699Z,100059.78
2022-10-10T04:30:56.792Z,100070.13
2022-10-10T04:35:59.345Z,100071.88
2022-10-10T04:41:01.950Z,100084.75
2022-10-10T04:46:04.644Z,100100.22
2022-10-10T04:51:07.342Z,100101.06
2022-10-10T04:56:09.986Z,100097.63
2022-10-10T05:01:12.602Z,100126.88
2022-10-10T05:06:15.413Z,100134.69
2022-10-10T05:11:18.077Z,100140.69
2022-10-10T05:16:20.705Z,100138.94
2022-10-10T05:21:23.749Z,100125.16
2022-10-10T05:26:27.002Z,100126.91
2022-10-10T05:31:29.729Z,100166.56
2022-10-10T05:36:32.381Z,100136.31
2022-10-10T05:41:35.510Z,100158.78
2022-10-10T05:46:38.192Z,100176.06
2022-10-10T05:51:41.233Z,100174.25
2022-10-10T05:56:44.148Z,100165.50
2022-10-10T06:01:46.749Z,100155.16
2022-10-10T06:06:53.609Z,100180.97
2022-10-10T06:11:56.221Z,100193.09
2022-10-10T06:16:58.841Z,100184.50
2022-10-10T06:22:01.500Z,100203.56
2022-10-10T06:27:04.558Z,100197.69
2022-10-10T06:32:07.056Z,100206.28
2022-10-10T06:37:12.437Z,100207.25
2022-10-10T06:42:15.052Z,100219.28
2022-10-10T06:47:17.694Z,100226.06
2022-10-10T06:52:20.348Z,100214.88
2022-10-10T06:57:22.937Z,100196.72
2022-10-10T07:02:25.515Z,100223.59
2022-10-10T07:07:28.090Z,100214.97
2022-10-10T07:12:35.138Z,100225.34
2022-10-10T07:17:42.531Z,100231.41
2022-10-10T07:22:45.271Z,100233.97
2022-10-10T07:27:48.360Z,100216.78
2022-10-10T07:32:53.363Z,100209.88
2022-10-10T07:37:56.369Z,100211.59
2022-10-10T07:42:59.632Z,100228.88
2022-10-10T07:48:02.158Z,100229.72
2022-10-10T07:53:04.894Z,100222.81
2022-10-10T07:58:08.270Z,100232.28
2022-10-10T08:03:12.340Z,100234.91
2022-10-10T08:08:15.138Z,100222.81
2022-10-10T08:13:17.765Z,100235.72
2022-10-10T08:18:20.613Z,100218.44
2022-10-10T08:23:23.912Z,100226.19
2022-10-10T08:28:28.498Z,100223.53
2022-10-10T08:33:31.092Z,100218.41
2022-10-10T08:38:34.637Z,100223.50
2022-10-10T08:43:51.537Z,100219.06
2022-10-10T08:48:58.268Z,100229.38
2022-10-10T08:54:05.705Z,100206.91
2022-10-10T08:59:16.636Z,100208.56
2022-10-10T09:04:19.892Z,100220.59
2022-10-10T09:09:43.913Z,100232.63
2022-10-10T09:14:59.805Z,100237.94
2022-10-10T09:20:38.414Z,100239.56
2022-10-10T09:25:48.917Z,100242.94
2022-10-10T09:30:57.668Z,100245.38
2022-10-10T09:36:05.674Z,100244.56
2022-10-10T09:41:14.109Z,100244.56
2022-10-10T09:46:16.735Z,100246.22
2022-10-10T09:51:20.297Z,100248.84
2022-10-10T09:56:26.120Z,100245.22
2022-10-10T10:01:32.691Z,100253.97
2022-10-10T10:06:35.807Z,100264.53
2022-10-10T10:11:42.186Z,100278.41
2022-10-10T10:16:44.931Z,100254.94
2022-10-10T10:21:50.265Z,100255.84
2022-10-10T10:26:52.865Z,100256.75
2022-10-10T10:32:02.970Z,100252.31
2022-10-10T10:37:23.905Z,100268.69
2022-10-10T10:42:41.452Z,100261.78
2022-10-10T10:48:13.050Z,100247.94
2022-10-10T10:53:49.222Z,100229.00
2022-10-10T11:05:25.051Z,100273.03
2022-10-10T11:10:32.694Z,100249.63
2022-10-10T11:21:17.297Z,100233.94
2022-10-10T11:26:51.490Z,100259.09
2022-10-10T11:32:01.239Z,100219.59
2022-10-10T11:37:11.288Z,100241.84
2022-10-10T11:42:13.813Z,100242.75
2022-10-10T11:47:20.472Z,100237.44
2022-10-10T11:52:41.808Z,100241.03
2022-10-10T11:57:56.047Z,100252.31
2022-10-10T12:02:58.684Z,100240.19
2022-10-10T12:08:07.253Z,100257.56
2022-10-10T12:13:25.230Z,100257.53
2022-10-10T12:19:09.053Z,100255.78
2022-10-10T12:24:14.002Z,100252.50
2022-10-10T12:29:39.209Z,100256.09
2022-10-10T12:34:47.895Z,100257.75
2022-10-10T12:40:06.464Z,100272.47
2022-10-10T12:45:31.235Z,100261.34
2022-10-10T12:50:40.801Z,100270.88
2022-10-10T12:55:53.794Z,100274.47
2022-10-10T13:01:00.514Z,100260.63
2022-10-10T13:06:15.354Z,100272.72
2022-10-10T13:11:17.981Z,100278.81
2022-10-10T13:16:23.487Z,100273.63
2022-10-10T13:21:34.116Z,100280.56
2022-10-10T13:26:45.629Z,100280.59
2022-10-10T13:31:48.992Z,100278.88
2022-10-10T13:36:55.938Z,100278.03
2022-10-10T13:42:00.121Z,100260.78
2022-10-10T13:47:40.998Z,100284.94
2022-10-10T13:52:43.508Z,100292.72
2022-10-10T13:57:48.017Z,100275.44
2022-10-10T14:02:51.136Z,100283.22
2022-10-10T14:07:55.719Z,100301.34
2022-10-10T14:13:00.511Z,100307.34
2022-10-10T14:18:15.214Z,100303.91
2022-10-10T14:23:18.091Z,100290.91
2022-10-10T14:28:32.606Z,100311.56
2022-10-10T14:33:35.439Z,100283.03
2022-10-10T14:38:38.032Z,100310.56
2022-10-10T14:43:45.478Z,100311.31
2022-10-10T14:48:48.866Z,100320.75
2022-10-10T14:54:12.008Z,100322.38
2022-10-10T14:59:48.533Z,100322.28
2022-10-10T15:04:43.462Z,100329.13
2022-10-10T15:10:32.022Z,100326.50
2022-10-10T15:15:12.350Z,100309.13
2022-10-10T15:20:15.007Z,100316.81
2022-10-10T15:25:17.634Z,100324.44
2022-10-10T15:30:20.377Z,100330.44
2022-10-10T15:35:24.617Z,100337.19
2022-10-10T15:40:27.272Z,100330.97
2022-10-10T15:45:55.118Z,100336.94
2022-10-10T15:50:52.705Z,100345.31
2022-10-10T15:55:55.406Z,100346.13
2022-10-10T16:00:58.004Z,100316.59
2022-10-10T16:06:02.587Z,100342.63
2022-10-10T16:11:07.463Z,100314.88
2022-10-10T16:16:11.605Z,100332.13
2022-10-10T16:21:20.214Z,100325.81
2022-10-10T16:26:29.252Z,100348.22
2022-10-10T16:31:35.381Z,100356.69
2022-10-10T16:36:38.042Z,100323.72
2022-10-10T16:41:48.157Z,100349.47
2022-10-10T16:46:51.890Z,100346.72
2022-10-10T16:51:54.493Z,100338.81
2022-10-10T16:56:57.109Z,100359.59
2022-10-10T17:01:59.750Z,100365.59
2022-10-10T17:07:02.376Z,100351.59
2022-10-10T17:12:05.624Z,100367.91
2022-10-10T17:17:12.782Z,100377.25
2022-10-10T17:22:16.532Z,100355.50
2022-10-10T17:27:19.109Z,100371.72
2022-10-10T17:32:23.100Z,100371.63
2022-10-10T17:37:25.756Z,100376.75
2022-10-10T17:42:28.392Z,100379.06
2022-10-10T17:47:31.242Z,100369.25
2022-10-10T17:52:33.821Z,100363.91
2022-10-10T17:57:37.054Z,100374.22
2022-10-10T18:02:39.799Z,100390.47
2022-10-10T18:07:43.754Z,100389.53
2022-10-10T18:12:46.417Z,100392.03
2022-10-10T18:17:49.065Z,100396.34
2022-10-10T18:22:53.950Z,100395.50
2022-10-10T18:27:58.303Z,100394.56
2022-10-10T18:33:00.902Z,100396.19
2022-10-10T18:38:03.500Z,100391.03
2022-10-10T18:43:06.063Z,100394.44
2022-10-10T18:48:08.639Z,100391.78
2022-10-10T18:53:11.585Z,100382.16
2022-10-10T18:58:14.268Z,100382.81
2022-10-10T19:03:16.854Z,100391.41
2022-10-10T19:08:19.440Z,100380.09
2022-10-10T19:13:22.202Z,100385.13
2022-10-10T19:18:24.729Z,100384.97
2022-10-10T19:23:27.657Z,100374.22
2022-10-10T19:28:31.757Z,100378.19
2022-10-10T19:33:34.550Z,100388.94
2022-10-10T19:38:39.917Z,100384.53
2022-10-10T19:43:43.941Z,100381.88
2022-10-10T19:48:46.521Z,100346.44
2022-10-10T19:53:49.196Z,100376.00
2022-10-10T19:58:57.634Z,100380.16
2022-10-10T20:04:00.357Z,100357.53
2022-10-10T20:09:05.059Z,100367.50
2022-10-10T20:14:10.245Z,100358.63
2022-10-10T20:19:12.809Z,100342.16
2022-10-10T20:24:15.613Z,100358.53
2022-10-10T20:29:18.516Z,100358.38
2022-10-10T20:34:21.093Z,100357.47
2022-10-10T20:39:23.645Z,100353.84
2022-10-10T20:44:26.278Z,100352.94
2022-10-10T20:49:29.078Z,100359.13
2022-10-10T20:54:31.664Z,100350.50
2022-10-10T20:59:34.229Z,100337.41
2022-10-10T21:04:37.542Z,100357.28
2022-10-10T21:09:40.167Z,100346.72
2022-10-10T21:14:42.805Z,100334.63
2022-10-10T21:19:45.371Z,100338.03
2022-10-10T21:24:48.125Z,100341.47
2022-10-10T21:29:52.382Z,100344.72
2022-10-10T21:34:56.535Z,100334.97
2022-10-10T21:39:59.389Z,100335.53
2022-10-10T21:45:01.932Z,100326.75
2022-10-10T21:50:05.666Z,100301.94
2022-10-10T21:55:08.913Z,100330.66
2022-10-10T22:00:12.250Z,100327.81
2022-10-10T22:05:16.409Z,100325.97
2022-10-10T22:10:19.740Z,100321.31
2022-10-10T22:15:22.481Z,100329.69
2022-10-10T22:20:25.084Z,100331.13
2022-10-10T22:25:27.755Z,100332.13
2022-10-10T22:30:30.357Z,100335.13
2022-10-10T22:35:33.859Z,100323.88
2022-10-10T22:40:36.721Z,100322.94
2022-10-10T22:45:39.265Z,100323.19
2022-10-10T22:50:41.881Z,100327.00
2022-10-10T22:55:44.482Z,100299.25
2022-10-10T23:00:47.207Z,100321.69
2022-10-10T23:05:49.823Z,100306.25
2022-10-10T23:10:52.637Z,100301.69
2022-10-10T23:15:55.256Z,100291.16
2022-10-10T23:20:58.260Z,100305.09
2022-10-10T23:26:06.071Z,100303.34
2022-10-10T23:31:10.178Z,100300.72
2022-10-10T23:36:15.068Z,100299.53
2022-10-10T23:41:17.744Z,100301.19
2022-10-10T23:46:20.338Z,100296.81
2022-10-10T23:51:22.926Z,100298.63
2022-10-10T23:56:25.477Z,100298.88
